createdAt,value
2022-08-14T00:02:01.480Z,101387.84
2022-08-14T00:04:34.794Z,101377.84
2022-08-14T00:07:10.435Z,101381.94
2022-08-14T00:09:55.989Z,101374.41
2022-08-14T00:12:33.602Z,101383.13
2022-08-14T00:15:10.376Z,101375.53
2022-08-14T00:17:48.072Z,101374.72
2022-08-14T00:20:30.621Z,101377.22
2022-08-14T00:23:12.086Z,101376.13
2022-08-14T00:25:53.787Z,101375.59
2022-08-14T00:28:35.321Z,101372.66
2022-08-14T00:31:04.998Z,101381.63
2022-08-14T00:33:50.737Z,101378.34
2022-08-14T00:36:37.264Z,101378.34
2022-08-14T00:39:18.246Z,101383.78
2022-08-14T00:41:47.363Z,101368.59
2022-08-14T00:44:21.497Z,101378.34
2022-08-14T00:46:59.825Z,101371.31
2022-08-14T00:49:30.218Z,101374.84
2022-08-14T00:52:00.454Z,101370.50
2022-08-14T00:54:28.051Z,101363.47
2022-08-14T00:56:56.481Z,101360.22
2022-08-14T00:59:25.997Z,101361.03
2022-08-14T01:01:58.169Z,101350.72
2022-08-14T01:04:37.780Z,101350.72
2022-08-14T01:07:20.987Z,101345.88
2022-08-14T01:09:51.608Z,101349.66
2022-08-14T01:12:27.217Z,101345.03
2022-08-14T01:14:58.941Z,101346.44
2022-08-14T01:17:51.827Z,101346.44
2022-08-14T01:20:41.106Z,101341.56
2022-08-14T01:23:16.672Z,101347.59
2022-08-14T01:25:51.433Z,101347.84
2022-08-14T01:28:46.999Z,101342.72
2022-08-14T01:31:12.617Z,101347.13
2022-08-14T01:35:15.663Z,101341.44
2022-08-14T01:36:38.037Z,101334.97
2022-08-14T01:39:13.598Z,101329.81
2022-08-14T01:41:44.214Z,101325.50
2022-08-14T01:44:32.458Z,101327.69
2022-08-14T01:47:12.379Z,101322.31
2022-08-14T01:49:59.804Z,101321.22
2022-08-14T01:52:34.136Z,101307.72
2022-08-14T01:55:25.387Z,101311.00
2022-08-14T01:58:02.088Z,101315.09
2022-08-14T02:00:43.388Z,101308.91
2022-08-14T02:03:16.248Z,101309.47
2022-08-14T02:05:44.095Z,101307.88
2022-08-14T02:08:11.689Z,101298.69
2022-08-14T02:10:46.253Z,101295.72
2022-08-14T02:13:16.076Z,101295.75
2022-08-14T02:15:44.400Z,101292.28
2022-08-14T02:18:15.274Z,101297.47
2022-08-14T02:20:42.849Z,101288.53
2022-08-14T02:23:11.467Z,101292.91
2022-08-14T02:25:39.524Z,101286.44
2022-08-14T02:28:22.296Z,101284.28
2022-08-14T02:30:56.023Z,101280.53
2022-08-14T02:33:24.001Z,101289.75
2022-08-14T02:36:01.544Z,101290.84
2022-08-14T02:38:41.069Z,101284.09
2022-08-14T02:41:13.870Z,101289.00
2022-08-14T02:43:46.552Z,101285.47
2022-08-14T02:46:20.769Z,101280.03
2022-08-14T02:49:03.282Z,101278.41
2022-08-14T02:51:34.882Z,101277.34
2022-08-14T02:54:07.349Z,101269.75
2022-08-14T02:57:15.981Z,101272.47
2022-08-14T02:59:33.791Z,101268.69
2022-08-14T03:02:03.040Z,101273.28
2022-08-14T03:04:30.878Z,101270.88
2022-08-14T03:07:07.421Z,101270.31
2022-08-14T03:10:26.628Z,101266.00
2022-08-14T03:12:31.078Z,101261.13
2022-08-14T03:15:16.133Z,101254.63
2022-08-14T03:17:57.416Z,101255.72
2022-08-14T03:20:27.986Z,101239.44
2022-08-14T03:22:57.146Z,101245.69
2022-08-14T03:25:24.533Z,101240.78
2022-08-14T03:27:58.455Z,101238.09
2022-08-14T03:30:39.444Z,101239.44
2022-08-14T03:33:11.882Z,101232.44
2022-08-14T03:35:59.840Z,101229.16
2022-08-14T03:39:14.261Z,101226.22
2022-08-14T03:41:23.282Z,101221.09
2022-08-14T03:44:01.169Z,101216.75
2022-08-14T03:46:51.809Z,101221.66
2022-08-14T03:49:24.340Z,101214.59
2022-08-14T03:51:57.766Z,101213.00
2022-08-14T03:54:26.041Z,101213.25
2022-08-14T03:56:54.689Z,101218.97
2022-08-14T03:59:22.254Z,101207.63
2022-08-14T04:01:53.858Z,101207.09
2022-08-14T04:04:29.453Z,101207.63
2022-08-14T04:07:01.679Z,101207.13
2022-08-14T04:09:29.451Z,101198.72
2022-08-14T04:11:58.078Z,101197.91
2022-08-14T04:14:28.978Z,101193.06
2022-08-14T04:16:58.220Z,101195.25
2022-08-14T04:19:28.312Z,101196.63
2022-08-14T04:22:03.700Z,101195.00
2022-08-14T04:24:38.048Z,101199.59
2022-08-14T04:27:09.534Z,101204.19
2022-08-14T04:29:38.862Z,101194.19
2022-08-14T04:32:57.600Z,101192.56
2022-08-14T04:34:57.084Z,101185.25
2022-08-14T04:37:45.184Z,101181.16
2022-08-14T04:40:32.737Z,101184.47
2022-08-14T04:43:21.331Z,101174.69
2022-08-14T04:45:51.034Z,101181.22
2022-08-14T04:48:39.063Z,101178.53
2022-08-14T04:51:12.619Z,101188.53
2022-08-14T04:53:43.692Z,101176.59
2022-08-14T04:56:31.029Z,101170.91
2022-08-14T04:59:10.500Z,101175.22
2022-08-14T05:01:41.703Z,101174.16
2022-08-14T05:04:19.997Z,101179.28
2022-08-14T05:06:50.030Z,101176.00
2022-08-14T05:09:22.814Z,101167.03
2022-08-14T05:11:51.420Z,101163.50
2022-08-14T05:14:43.226Z,101165.34
2022-08-14T05:17:10.572Z,101163.97
2022-08-14T05:19:44.787Z,101173.16
2022-08-14T05:22:27.591Z,101170.44
2022-08-14T05:24:54.970Z,101172.91
2022-08-14T05:27:23.967Z,101176.94
2022-08-14T05:29:57.074Z,101168.53
2022-08-14T05:32:26.899Z,101166.34
2022-08-14T05:34:58.318Z,101166.59
2022-08-14T05:37:28.172Z,101172.25
2022-08-14T05:39:56.321Z,101164.63
2022-08-14T05:42:29.328Z,101169.50
2022-08-14T05:45:11.268Z,101163.50
2022-08-14T05:47:41.974Z,101156.47
2022-08-14T05:50:18.861Z,101152.16
2022-08-14T05:52:48.795Z,101155.94
2022-08-14T05:55:21.996Z,101149.97
2022-08-14T05:57:54.295Z,101154.78
2022-08-14T06:00:28.586Z,101155.03
2022-08-14T06:02:58.173Z,101150.97
2022-08-14T06:05:29.990Z,101148.47
2022-08-14T06:07:58.867Z,101147.63
2022-08-14T06:10:28.278Z,101151.38
2022-08-14T06:12:58.031Z,101150.81
2022-08-14T06:15:30.034Z,101155.66
2022-08-14T06:18:00.359Z,101147.25
2022-08-14T06:20:31.327Z,101146.91
2022-08-14T06:23:02.021Z,101150.38
2022-08-14T06:25:31.699Z,101142.78
2022-08-14T06:28:02.035Z,101140.78
2022-08-14T06:30:46.064Z,101152.94
2022-08-14T06:33:15.778Z,101148.81
2022-08-14T06:35:46.807Z,101143.25
2022-08-14T06:38:17.422Z,101142.91
2022-08-14T06:40:46.382Z,101139.88
2022-08-14T06:43:15.798Z,101141.00
2022-08-14T06:45:50.391Z,101137.72
2022-08-14T06:48:24.541Z,101144.38
2022-08-14T06:50:54.726Z,101139.94
2022-08-14T06:53:28.202Z,101145.53
2022-08-14T06:56:00.684Z,101136.78
2022-08-14T06:58:32.138Z,101135.06
2022-08-14T07:01:26.730Z,101130.72
2022-08-14T07:04:22.956Z,101134.63
2022-08-14T07:06:55.644Z,101139.59
2022-08-14T07:09:40.478Z,101150.97
2022-08-14T07:12:54.122Z,101145.53
2022-08-14T07:15:04.974Z,101149.31
2022-08-14T07:17:34.483Z,101150.16
2022-08-14T07:20:07.249Z,101143.00
2022-08-14T07:22:56.476Z,101143.09
2022-08-14T07:25:32.377Z,101122.00
2022-08-14T07:28:01.612Z,101131.31
2022-08-14T07:30:34.090Z,101132.78
2022-08-14T07:33:03.709Z,101141.31
2022-08-14T07:35:42.892Z,101146.00
2022-08-14T07:38:18.584Z,101134.16
2022-08-14T07:40:48.333Z,101138.47
2022-08-14T07:43:23.059Z,101146.31
2022-08-14T07:45:53.874Z,101142.75
2022-08-14T07:48:24.970Z,101143.44
2022-08-14T07:50:56.224Z,101145.09
2022-08-14T07:53:36.709Z,101140.09
2022-08-14T07:56:21.726Z,101142.88
2022-08-14T07:58:58.796Z,101154.00
2022-08-14T08:01:29.819Z,101141.47
2022-08-14T08:04:03.672Z,101145.59
2022-08-14T08:06:31.516Z,101144.72
2022-08-14T08:09:03.039Z,101148.00
2022-08-14T08:11:34.756Z,101145.31
2022-08-14T08:14:10.314Z,101143.66
2022-08-14T08:16:38.374Z,101134.63
2022-08-14T08:19:13.992Z,101138.41
2022-08-14T08:21:43.818Z,101133.47
2022-08-14T08:24:18.541Z,101140.34
2022-08-14T08:26:47.634Z,101138.84
2022-08-14T08:29:24.954Z,101133.81
2022-08-14T08:32:01.937Z,101132.47
2022-08-14T08:34:45.995Z,101127.25
2022-08-14T08:37:14.793Z,101125.03
2022-08-14T08:40:03.002Z,101126.34
2022-08-14T08:42:38.601Z,101120.28
2022-08-14T08:45:12.184Z,101118.53
2022-08-14T08:47:40.627Z,101120.69
2022-08-14T08:50:31.116Z,101111.22
2022-08-14T08:53:02.398Z,101100.91
2022-08-14T08:55:35.367Z,101103.09
2022-08-14T08:58:12.774Z,101099.94
2022-08-14T09:00:49.061Z,101091.56
2022-08-14T09:03:21.585Z,101094.72
2022-08-14T09:05:56.166Z,101093.16
2022-08-14T09:08:30.864Z,101089.19
2022-08-14T09:11:18.980Z,101080.88
2022-08-14T09:13:51.585Z,101086.81
2022-08-14T09:16:23.549Z,101082.03
2022-08-14T09:18:53.335Z,101079.25
2022-08-14T09:21:24.296Z,101081.25
2022-08-14T09:24:29.501Z,101074.50
2022-08-14T09:26:48.876Z,101066.16
2022-08-14T09:29:23.232Z,101062.97
2022-08-14T09:31:57.520Z,101051.84
2022-08-14T09:34:58.737Z,101055.03
2022-08-14T09:37:47.598Z,101037.94
2022-08-14T09:40:37.213Z,101037.00
2022-08-14T09:43:30.186Z,101030.69
2022-08-14T09:46:02.500Z,101025.09
2022-08-14T09:48:31.306Z,101023.09
2022-08-14T09:54:17.680Z,101014.69
2022-08-14T09:56:31.205Z,101003.91
2022-08-14T09:59:16.624Z,101003.56
2022-08-14T10:01:46.320Z,101007.81
2022-08-14T10:04:34.711Z,100995.09
2022-08-14T10:07:05.588Z,101010.53
2022-08-14T10:09:35.114Z,100998.22
2022-08-14T10:12:06.776Z,100993.88
2022-08-14T10:14:53.242Z,101006.25
2022-08-14T10:17:27.460Z,100990.81
2022-08-14T10:19:58.044Z,100991.56
2022-08-14T10:23:12.979Z,100979.59
2022-08-14T10:25:18.931Z,100975.47
2022-08-14T10:27:57.731Z,100977.09
2022-08-14T10:30:38.407Z,100978.91
2022-08-14T10:33:07.127Z,100975.66
2022-08-14T10:35:47.802Z,100970.09
2022-08-14T10:38:31.838Z,100962.84
2022-08-14T10:41:12.831Z,100955.91
2022-08-14T10:43:42.403Z,100950.97
2022-08-14T10:47:13.206Z,100966.97
2022-08-14T10:49:05.203Z,100955.84
2022-08-14T10:51:36.364Z,100948.63
2022-08-14T10:54:35.181Z,100942.16
2022-08-14T10:56:59.109Z,100941.00
2022-08-14T10:59:31.334Z,100943.19
2022-08-14T11:02:17.618Z,100932.94
2022-08-14T11:05:07.428Z,100924.09
2022-08-14T11:07:39.783Z,100929.97
2022-08-14T11:10:10.572Z,100930.97
2022-08-14T11:12:48.045Z,100922.38
2022-08-14T11:15:19.783Z,100923.72
2022-08-14T11:17:51.261Z,100915.31
2022-08-14T11:20:23.950Z,100924.84
2022-08-14T11:22:57.853Z,100923.59
2022-08-14T11:25:44.002Z,100907.06
2022-08-14T11:28:46.257Z,100912.88
2022-08-14T11:31:17.075Z,100901.25
2022-08-14T11:33:51.215Z,100900.09
2022-08-14T11:36:23.614Z,100900.38
2022-08-14T11:38:51.538Z,100899.53
2022-08-14T11:41:21.513Z,100890.22
2022-08-14T11:43:58.229Z,100891.25
2022-08-14T11:46:30.753Z,100888.97
2022-08-14T11:49:06.935Z,100883.63
2022-08-14T11:51:54.424Z,100879.53
2022-08-14T11:54:34.986Z,100874.00
2022-08-14T11:57:04.675Z,100865.88
2022-08-14T11:59:35.411Z,100867.88
2022-08-14T12:02:39.097Z,100868.16
2022-08-14T12:05:06.027Z,100869.50
2022-08-14T12:07:48.588Z,100876.50
2022-08-14T12:10:26.708Z,100867.28
2022-08-14T12:13:17.356Z,100867.91
2022-08-14T12:15:51.374Z,100858.41
2022-08-14T12:18:32.350Z,100846.59
2022-08-14T12:21:15.924Z,100847.19
2022-08-14T12:24:01.912Z,100855.47
2022-08-14T12:26:39.206Z,100853.19
2022-08-14T12:29:11.118Z,100838.41
2022-08-14T12:31:44.745Z,100833.63
2022-08-14T12:34:20.419Z,100826.63
2022-08-14T12:37:05.713Z,100818.22
2022-08-14T12:39:39.673Z,100816.66
2022-08-14T12:42:08.602Z,100803.47
2022-08-14T12:44:44.158Z,100803.13
2022-08-14T12:47:17.830Z,100807.47
2022-08-14T12:49:52.705Z,100784.19
2022-08-14T12:52:43.006Z,100777.19
2022-08-14T12:55:21.773Z,100775.97
2022-08-14T12:57:53.390Z,100777.34
2022-08-14T13:00:24.580Z,100774.13
2022-08-14T13:02:55.820Z,100785.41
2022-08-14T13:05:29.067Z,100786.22
2022-08-14T13:07:59.525Z,100781.50
2022-08-14T13:10:46.656Z,100773.97
2022-08-14T13:13:20.466Z,100771.88
2022-08-14T13:15:57.231Z,100762.94
2022-08-14T13:18:28.203Z,100756.84
2022-08-14T13:21:01.102Z,100749.78
2022-08-14T13:23:36.129Z,100757.28
2022-08-14T13:26:04.724Z,100760.94
2022-08-14T13:28:37.536Z,100757.00
2022-08-14T13:31:13.140Z,100755.19
2022-08-14T13:33:41.881Z,100752.03
2022-08-14T13:36:11.005Z,100746.34
2022-08-14T13:38:54.072Z,100733.03
2022-08-14T13:41:28.008Z,100736.38
2022-08-14T13:44:00.675Z,100725.63
2022-08-14T13:46:28.275Z,100726.56
2022-08-14T13:48:59.962Z,100722.25
2022-08-14T13:51:38.216Z,100706.69
2022-08-14T13:54:10.870Z,100709.00
2022-08-14T13:56:41.000Z,100714.94
2022-08-14T13:59:10.732Z,100698.53
2022-08-14T14:01:43.955Z,100695.22
2022-08-14T14:04:19.254Z,100691.16
2022-08-14T14:06:50.798Z,100687.66
2022-08-14T14:09:32.253Z,100680.69
2022-08-14T14:12:01.241Z,100670.50
2022-08-14T14:14:50.989Z,100673.38
2022-08-14T14:17:24.431Z,100678.59
2022-08-14T14:19:52.775Z,100676.75
2022-08-14T14:23:00.953Z,100687.41
2022-08-14T14:25:10.790Z,100685.41
2022-08-14T14:27:42.526Z,100678.84
2022-08-14T14:30:46.903Z,100683.25
2022-08-14T14:33:11.173Z,100673.41
2022-08-14T14:35:52.642Z,100665.38
2022-08-14T14:38:21.176Z,100670.41
2022-08-14T14:41:00.798Z,100658.16
2022-08-14T14:43:29.579Z,100656.31
2022-08-14T14:45:57.906Z,100652.44
2022-08-14T14:48:29.504Z,100657.03
2022-08-14T14:51:01.515Z,100657.94
2022-08-14T14:53:38.728Z,100641.44
2022-08-14T14:56:50.109Z,100644.97
2022-08-14T14:58:58.332Z,100641.34
2022-08-14T15:01:26.028Z,100643.38
2022-08-14T15:03:55.538Z,100643.38
2022-08-14T15:06:30.380Z,100642.69
2022-08-14T15:09:01.884Z,100640.66
2022-08-14T15:11:33.566Z,100647.00
2022-08-14T15:14:01.022Z,100625.50
2022-08-14T15:16:28.897Z,100630.88
2022-08-14T15:18:56.307Z,100635.63
2022-08-14T15:21:25.062Z,100630.81
2022-08-14T15:23:53.036Z,100630.28
2022-08-14T15:26:30.976Z,100634.44
2022-08-14T15:29:05.736Z,100633.81
2022-08-14T15:31:36.617Z,100633.31
2022-08-14T15:34:44.603Z,100627.72
2022-08-14T15:37:00.147Z,100617.97
2022-08-14T15:39:29.519Z,100609.44
2022-08-14T15:42:14.758Z,100623.25
2022-08-14T15:44:56.960Z,100617.75
2022-08-14T15:47:28.176Z,100604.28
2022-08-14T15:49:59.641Z,100593.03
2022-08-14T15:52:34.361Z,100592.31
2022-08-14T15:55:06.216Z,100582.03
2022-08-14T15:57:34.290Z,100582.03
2022-08-14T16:00:41.755Z,100586.41
2022-08-14T16:03:14.289Z,100596.75
2022-08-14T16:05:43.633Z,100583.59
2022-08-14T16:08:28.667Z,100589.34
2022-08-14T16:10:59.742Z,100586.00
2022-08-14T16:13:42.118Z,100585.53
2022-08-14T16:16:47.628Z,100581.38
2022-08-14T16:19:10.273Z,100572.03
2022-08-14T16:22:02.274Z,100572.41
2022-08-14T16:24:33.271Z,100568.88
2022-08-14T16:27:01.890Z,100567.25
2022-08-14T16:29:36.604Z,100573.97
2022-08-14T16:32:33.452Z,100563.22
2022-08-14T16:34:58.014Z,100559.56
2022-08-14T16:37:33.898Z,100561.66
2022-08-14T16:40:03.653Z,100549.41
2022-08-14T16:43:02.633Z,100545.38
2022-08-14T16:45:27.552Z,100542.66
2022-08-14T16:47:57.132Z,100554.91
2022-08-14T16:50:40.091Z,100548.16
2022-08-14T16:53:11.846Z,100552.88
2022-08-14T16:55:53.272Z,100551.94
2022-08-14T16:58:30.340Z,100544.50
2022-08-14T17:01:24.564Z,100546.28
2022-08-14T17:04:04.693Z,100540.81
2022-08-14T17:06:48.382Z,100539.13
2022-08-14T17:09:35.502Z,100528.34
2022-08-14T17:12:28.594Z,100539.31
2022-08-14T17:15:10.488Z,100540.44
2022-08-14T17:17:57.651Z,100523.81
2022-08-14T17:20:53.810Z,100525.69
2022-08-14T17:23:15.229Z,100525.94
2022-08-14T17:25:50.973Z,100523.47
2022-08-14T17:28:51.303Z,100523.25
2022-08-14T17:31:10.013Z,100526.94
2022-08-14T17:33:40.701Z,100527.56
2022-08-14T17:36:20.791Z,100529.75
2022-08-14T17:39:06.304Z,100529.84
2022-08-14T17:41:38.671Z,100535.56
2022-08-14T17:44:33.476Z,100531.44
2022-08-14T17:47:06.524Z,100528.25
2022-08-14T17:49:40.399Z,100530.56
2022-08-14T17:52:18.396Z,100524.88
2022-08-14T17:55:01.660Z,100531.72
2022-08-14T17:57:45.450Z,100530.84
2022-08-14T18:00:17.370Z,100525.16
2022-08-14T18:02:51.134Z,100527.00
2022-08-14T18:05:23.367Z,100526.44
2022-08-14T18:08:32.776Z,100523.63
2022-08-14T18:11:00.307Z,100524.97
2022-08-14T18:13:49.662Z,100531.47
2022-08-14T18:16:20.602Z,100529.78
2022-08-14T18:18:51.501Z,100527.72
2022-08-14T18:21:41.044Z,100529.56
2022-08-14T18:24:20.285Z,100530.47
2022-08-14T18:27:09.169Z,100522.84
2022-08-14T18:29:54.799Z,100531.31
2022-08-14T18:32:47.616Z,100527.09
2022-08-14T18:35:56.824Z,100518.56
2022-08-14T18:38:43.135Z,100522.25
2022-08-14T18:41:37.551Z,100523.19
2022-08-14T18:44:10.827Z,100523.19
2022-08-14T18:47:20.742Z,100521.13
2022-08-14T18:50:26.038Z,100529.34
2022-08-14T18:52:53.963Z,100526.97
2022-08-14T18:55:53.532Z,100520.00
2022-08-14T18:58:31.028Z,100534.13
2022-08-14T19:01:00.858Z,100526.59
2022-08-14T19:04:00.862Z,100529.31
2022-08-14T19:06:56.315Z,100519.03
2022-08-14T19:09:54.679Z,100524.94
2022-08-14T19:13:00.452Z,100526.28
2022-08-14T19:15:32.740Z,100521.75
2022-08-14T19:18:14.366Z,100521.28
2022-08-14T19:20:52.800Z,100524.25
2022-08-14T19:23:42.360Z,100522.19
2022-08-14T19:26:35.688Z,100528.22
2022-08-14T19:29:38.365Z,100517.03
2022-08-14T19:32:41.470Z,100525.28
2022-08-14T19:35:55.701Z,100518.78
2022-08-14T19:38:48.402Z,100521.81
2022-08-14T19:41:25.055Z,100514.44
2022-08-14T19:44:10.512Z,100520.91
2022-08-14T19:47:01.860Z,100511.09
2022-08-14T19:50:25.093Z,100510.03
2022-08-14T19:52:25.584Z,100523.59
2022-08-14T19:54:54.318Z,100525.06
2022-08-14T19:57:24.616Z,100513.19
2022-08-14T20:00:04.628Z,100521.13
2022-08-14T20:02:37.652Z,100514.88
2022-08-14T20:05:12.231Z,100520.53
2022-08-14T20:07:58.911Z,100517.66
2022-08-14T20:11:11.322Z,100523.00
2022-08-14T20:13:32.746Z,100524.78
2022-08-14T20:16:12.510Z,100524.97
2022-08-14T20:18:51.758Z,100522.25
2022-08-14T20:21:23.814Z,100518.25
2022-08-14T20:24:30.888Z,100515.25
2022-08-14T20:27:24.925Z,100520.09
2022-08-14T20:30:32.830Z,100518.34
2022-08-14T20:33:07.466Z,100516.09
2022-08-14T20:35:41.848Z,100516.09
2022-08-14T20:38:30.855Z,100516.44
2022-08-14T20:41:06.593Z,100521.41
2022-08-14T20:43:55.829Z,100515.97
2022-08-14T20:46:29.638Z,100515.00
2022-08-14T20:49:00.662Z,100519.69
2022-08-14T20:51:43.535Z,100519.19
2022-08-14T20:54:34.122Z,100517.81
2022-08-14T20:57:09.804Z,100525.19
2022-08-14T20:59:43.490Z,100520.88
2022-08-14T21:02:38.776Z,100518.97
2022-08-14T21:05:33.794Z,100507.88
2022-08-14T21:08:08.105Z,100518.66
2022-08-14T21:10:44.178Z,100520.13
2022-08-14T21:14:09.204Z,100519.97
2022-08-14T21:16:33.725Z,100513.91
2022-08-14T21:19:00.006Z,100510.25
2022-08-14T21:21:40.559Z,100514.44
2022-08-14T21:24:40.182Z,100509.16
2022-08-14T21:27:13.241Z,100508.53
2022-08-14T21:29:54.065Z,100506.44
2022-08-14T21:32:35.756Z,100506.31
2022-08-14T21:35:09.915Z,100502.16
2022-08-14T21:37:44.099Z,100501.38
2022-08-14T21:40:40.789Z,100508.59
2022-08-14T21:43:00.412Z,100497.06
2022-08-14T21:45:27.802Z,100496.88
2022-08-14T21:47:56.406Z,100498.97
2022-08-14T21:51:00.343Z,100501.88
2022-08-14T21:53:14.742Z,100501.56
2022-08-14T21:55:43.543Z,100492.47
2022-08-14T21:58:52.546Z,100497.44
2022-08-14T22:00:58.741Z,100499.84
2022-08-14T22:03:26.347Z,100496.19
2022-08-14T22:06:04.658Z,100500.66
2022-08-14T22:08:38.352Z,100502.09
2022-08-14T22:11:07.341Z,100503.56
2022-08-14T22:13:46.471Z,100499.38
2022-08-14T22:17:01.527Z,100496.19
2022-08-14T22:19:03.711Z,100492.97
2022-08-14T22:21:33.425Z,100493.28
2022-08-14T22:24:01.894Z,100485.44
2022-08-14T22:26:44.712Z,100494.25
2022-08-14T22:29:15.010Z,100485.13
2022-08-14T22:31:46.197Z,100490.09
2022-08-14T22:34:16.994Z,100482.25
2022-08-14T22:36:48.643Z,100490.75
2022-08-14T22:39:17.166Z,100479.03
2022-08-14T22:41:55.824Z,100482.44
2022-08-14T22:44:29.188Z,100476.34
2022-08-14T22:46:57.668Z,100478.59
2022-08-14T22:50:31.463Z,100478.09
2022-08-14T22:52:31.669Z,100476.00
2022-08-14T22:55:05.739Z,100465.75
2022-08-14T22:57:37.815Z,100468.81
2022-08-14T23:00:15.069Z,100468.00
2022-08-14T23:02:44.954Z,100466.91
2022-08-14T23:05:15.275Z,100464.19
2022-08-14T23:08:59.207Z,100464.81
2022-08-14T23:10:34.770Z,100463.06
2022-08-14T23:13:06.758Z,100462.25
2022-08-14T23:15:37.541Z,100455.19
2022-08-14T23:18:05.985Z,100455.81
2022-08-14T23:20:33.851Z,100454.19
2022-08-14T23:23:13.074Z,100451.00
2022-08-14T23:25:59.779Z,100450.38
2022-08-14T23:28:56.573Z,100453.56
2022-08-14T23:31:34.468Z,100448.13
2022-08-14T23:34:06.730Z,100449.75
2022-08-14T23:36:53.606Z,100439.38
2022-08-14T23:39:29.496Z,100439.66
2022-08-14T23:42:02.555Z,100447.53
2022-08-14T23:44:34.964Z,100442.09
2022-08-14T23:47:10.637Z,100432.78
2022-08-14T23:50:00.990Z,100432.78
2022-08-14T23:52:57.458Z,100431.97
2022-08-14T23:55:17.945Z,100423.34
2022-08-14T23:57:58.010Z,100423.16
